createdAt,value
2019-04-07T00:00:12.228Z,3.77
2019-04-07T00:02:40.782Z,4.00
2019-04-07T00:05:12.520Z,3.63
2019-04-07T00:07:39.091Z,3.80
2019-04-07T00:10:08.412Z,3.77
2019-04-07T00:12:36.952Z,3.77
2019-04-07T00:15:06.961Z,4.17
2019-04-07T00:17:35.064Z,4.30
2019-04-07T00:20:04.197Z,4.33
2019-04-07T00:22:32.403Z,4.37
2019-04-07T00:25:00.751Z,3.97
2019-04-07T00:27:28.855Z,4.13
2019-04-07T00:29:57.899Z,3.97
2019-04-07T00:32:26.274Z,4.10
2019-04-07T00:34:54.306Z,3.87
2019-04-07T00:37:22.985Z,3.70
2019-04-07T00:39:51.569Z,4.00
2019-04-07T00:42:20.334Z,3.53
2019-04-07T00:44:48.594Z,3.63
2019-04-07T00:47:16.557Z,3.80
2019-04-07T00:49:45.078Z,3.20
2019-04-07T00:52:14.517Z,3.53
2019-04-07T00:54:42.640Z,3.43
2019-04-07T00:57:10.966Z,3.87
2019-04-07T00:59:39.699Z,4.50
2019-04-07T01:02:07.849Z,3.33
2019-04-07T01:04:36.448Z,4.07
2019-04-07T01:07:04.861Z,4.13
2019-04-07T01:09:34.081Z,4.60
2019-04-07T01:12:02.853Z,3.67
2019-04-07T01:14:31.436Z,3.57
2019-04-07T01:17:00.329Z,3.90
2019-04-07T01:19:29.030Z,5.53
2019-04-07T01:21:57.035Z,3.40
2019-04-07T01:24:25.222Z,3.90
2019-04-07T01:26:53.712Z,4.27
2019-04-07T01:29:22.112Z,4.10
2019-04-07T01:31:50.617Z,3.90
2019-04-07T01:34:18.740Z,3.63
2019-04-07T01:36:47.138Z,3.50
2019-04-07T01:39:16.887Z,4.37
2019-04-07T01:42:04.962Z,3.80
2019-04-07T01:44:55.095Z,4.33
2019-04-07T01:47:32.089Z,3.53
2019-04-07T01:50:18.594Z,4.00
2019-04-07T01:52:54.738Z,4.03
2019-04-07T01:55:52.084Z,3.77
2019-04-07T01:58:55.075Z,3.77
2019-04-07T02:01:38.501Z,3.87
2019-04-07T02:04:35.826Z,3.53
2019-04-07T02:07:11.895Z,4.03
2019-04-07T02:09:58.642Z,3.70
2019-04-07T02:12:49.791Z,3.33
2019-04-07T02:15:42.207Z,3.23
2019-04-07T02:18:22.470Z,4.03
2019-04-07T02:21:00.906Z,3.63
2019-04-07T02:24:01.044Z,3.80
2019-04-07T02:26:46.435Z,3.83
2019-04-07T02:29:32.471Z,3.50
2019-04-07T02:32:27.580Z,3.43
2019-04-07T02:35:07.575Z,4.30
2019-04-07T02:37:50.368Z,4.20
2019-04-07T02:40:31.287Z,3.33
2019-04-07T02:43:12.445Z,3.93
2019-04-07T02:46:09.676Z,3.73
2019-04-07T02:48:59.922Z,3.70
2019-04-07T02:51:42.169Z,3.97
2019-04-07T02:54:43.232Z,3.77
2019-04-07T02:57:36.384Z,3.50
2019-04-07T03:00:22.886Z,3.60
2019-04-07T03:03:17.148Z,3.50
2019-04-07T03:06:02.414Z,4.20
2019-04-07T03:08:59.411Z,3.93
2019-04-07T03:11:42.913Z,4.10
2019-04-07T03:14:31.568Z,4.03
2019-04-07T03:17:12.281Z,3.73
2019-04-07T03:20:03.063Z,4.30
2019-04-07T03:22:53.274Z,3.87
2019-04-07T03:25:49.967Z,4.33
2019-04-07T03:28:49.453Z,4.00
2019-04-07T03:31:29.172Z,4.37
2019-04-07T03:34:08.956Z,4.23
2019-04-07T03:37:16.913Z,4.17
2019-04-07T03:39:42.361Z,3.63
2019-04-07T03:42:26.120Z,3.27
2019-04-07T03:45:00.673Z,3.77
2019-04-07T03:47:42.094Z,3.37
2019-04-07T03:50:15.072Z,4.37
2019-04-07T03:53:15.783Z,4.90
2019-04-07T03:55:53.464Z,3.80
2019-04-07T03:58:39.985Z,4.10
2019-04-07T04:01:31.023Z,3.37
2019-04-07T04:04:19.040Z,3.70
2019-04-07T04:07:28.426Z,3.27
2019-04-07T04:09:52.567Z,3.67
2019-04-07T04:12:34.290Z,3.30
2019-04-07T04:15:08.818Z,3.30
2019-04-07T04:17:37.066Z,3.20
2019-04-07T04:20:06.234Z,3.60
2019-04-07T04:22:34.263Z,3.60
2019-04-07T04:25:02.906Z,3.63
2019-04-07T04:27:31.502Z,3.67
2019-04-07T04:29:59.535Z,3.80
2019-04-07T04:32:28.831Z,3.63
2019-04-07T04:34:57.524Z,3.27
2019-04-07T04:37:36.184Z,4.10
2019-04-07T04:39:55.883Z,3.60
2019-04-07T04:42:25.035Z,3.43
2019-04-07T04:44:54.292Z,3.50
2019-04-07T04:47:23.230Z,3.63
2019-04-07T04:49:52.663Z,3.83
2019-04-07T04:52:22.055Z,3.37
2019-04-07T04:54:50.051Z,3.77
2019-04-07T04:57:18.085Z,3.63
2019-04-07T04:59:46.591Z,4.23
2019-04-07T05:02:14.723Z,3.80
2019-04-07T05:04:42.724Z,3.10
2019-04-07T05:07:11.314Z,3.73
2019-04-07T05:09:46.219Z,3.53
2019-04-07T05:12:10.087Z,3.80
2019-04-07T05:14:38.802Z,3.53
2019-04-07T05:17:07.386Z,4.40
2019-04-07T05:19:35.631Z,4.03
2019-04-07T05:22:03.812Z,3.60
2019-04-07T05:24:32.578Z,3.63
2019-04-07T05:27:01.006Z,3.53
2019-04-07T05:29:29.122Z,4.10
2019-04-07T05:31:57.241Z,3.97
2019-04-07T05:34:25.730Z,4.67
2019-04-07T05:36:54.505Z,3.80
2019-04-07T05:39:22.995Z,4.20
2019-04-07T05:41:51.035Z,3.97
2019-04-07T05:44:19.028Z,3.80
2019-04-07T05:46:49.569Z,5.13
2019-04-07T05:49:18.634Z,4.30
2019-04-07T05:51:47.983Z,3.90
2019-04-07T05:54:18.078Z,4.40
2019-04-07T05:56:46.004Z,4.33
2019-04-07T05:59:14.989Z,3.87
2019-04-07T06:01:44.388Z,4.40
2019-04-07T06:04:16.743Z,3.87
2019-04-07T06:06:42.778Z,4.13
2019-04-07T06:09:11.214Z,4.00
2019-04-07T06:11:40.041Z,4.10
2019-04-07T06:14:08.498Z,4.10
2019-04-07T06:16:36.740Z,3.87
2019-04-07T06:19:08.099Z,3.67
2019-04-07T06:21:36.625Z,3.97
2019-04-07T06:24:04.839Z,4.37
2019-04-07T06:26:33.102Z,4.10
2019-04-07T06:29:01.615Z,4.03
2019-04-07T06:31:32.808Z,3.93
2019-04-07T06:33:59.892Z,3.90
2019-04-07T06:36:28.748Z,4.10
2019-04-07T06:38:57.103Z,4.37
2019-04-07T06:41:30.116Z,3.93
2019-04-07T06:44:08.299Z,3.73
2019-04-07T06:46:34.093Z,4.00
2019-04-07T06:49:12.341Z,4.20
2019-04-07T06:51:46.950Z,4.20
2019-04-07T06:54:40.583Z,3.97
2019-04-07T06:57:28.334Z,4.00
2019-04-07T07:00:15.165Z,3.50
2019-04-07T07:03:06.118Z,4.07
2019-04-07T07:06:05.843Z,4.10
2019-04-07T07:08:55.655Z,4.30
2019-04-07T07:11:38.451Z,3.87
2019-04-07T07:14:34.921Z,4.87
2019-04-07T07:17:23.108Z,3.90
2019-04-07T07:20:05.645Z,4.27
2019-04-07T07:22:41.839Z,3.77
2019-04-07T07:25:12.372Z,4.30
2019-04-07T07:27:42.750Z,3.37
2019-04-07T07:30:12.052Z,5.60
2019-04-07T07:32:40.965Z,3.60
2019-04-07T07:35:12.706Z,4.10
2019-04-07T07:37:40.175Z,4.20
2019-04-07T07:40:09.823Z,4.50
2019-04-07T07:42:38.246Z,3.63
2019-04-07T07:45:10.921Z,4.13
2019-04-07T07:47:37.226Z,4.87
2019-04-07T07:50:07.757Z,4.30
2019-04-07T07:52:35.715Z,3.67
2019-04-07T07:55:05.834Z,3.80
2019-04-07T07:57:33.924Z,4.20
2019-04-07T08:00:04.567Z,3.97
2019-04-07T08:02:32.172Z,4.30
2019-04-07T08:05:00.651Z,3.57
2019-04-07T08:07:28.906Z,3.97
2019-04-07T08:09:58.075Z,4.23
2019-04-07T08:12:28.078Z,4.13
2019-04-07T08:14:57.731Z,4.10
2019-04-07T08:17:27.057Z,3.87
2019-04-07T08:19:55.790Z,4.03
2019-04-07T08:22:30.696Z,3.83
2019-04-07T08:24:54.554Z,4.10
2019-04-07T08:27:23.958Z,4.30
2019-04-07T08:29:53.514Z,4.13
2019-04-07T08:32:22.645Z,3.97
2019-04-07T08:34:51.600Z,3.57
2019-04-07T08:37:20.048Z,3.80
2019-04-07T08:39:48.600Z,3.50
2019-04-07T08:42:18.786Z,3.43
2019-04-07T08:44:47.358Z,3.47
2019-04-07T08:47:20.799Z,3.23
2019-04-07T08:49:47.019Z,3.07
2019-04-07T08:52:15.344Z,3.50
2019-04-07T08:54:43.410Z,2.30
2019-04-07T08:57:11.452Z,2.10
2019-04-07T08:59:43.015Z,1.80
2019-04-07T09:02:11.382Z,1.77
2019-04-07T09:04:41.286Z,1.67
2019-04-07T09:07:10.294Z,1.50
2019-04-07T09:09:44.994Z,1.30
2019-04-07T09:12:09.290Z,1.30
2019-04-07T09:14:39.703Z,1.57
2019-04-07T09:17:35.449Z,1.30
2019-04-07T09:20:10.906Z,1.50
2019-04-07T09:23:20.202Z,1.37
2019-04-07T09:26:12.028Z,1.20
2019-04-07T09:28:51.461Z,1.20
2019-04-07T09:31:37.345Z,1.50
2019-04-07T09:34:26.253Z,1.80
2019-04-07T09:37:13.539Z,1.90
2019-04-07T09:39:59.140Z,1.33
2019-04-07T09:43:00.227Z,1.30
2019-04-07T09:45:45.876Z,1.20
2019-04-07T09:48:34.461Z,1.20
2019-04-07T09:51:25.454Z,1.20
2019-04-07T09:54:01.363Z,1.40
2019-04-07T09:56:40.677Z,1.47
2019-04-07T09:59:20.673Z,1.87
2019-04-07T10:02:11.471Z,1.30
2019-04-07T10:05:02.016Z,1.80
2019-04-07T10:07:59.370Z,1.43
2019-04-07T10:10:49.443Z,1.30
2019-04-07T10:13:36.780Z,1.43
2019-04-07T10:16:24.625Z,1.23
2019-04-07T10:19:11.043Z,1.23
2019-04-07T10:22:07.318Z,1.33
2019-04-07T10:24:59.097Z,1.17
2019-04-07T10:27:40.705Z,1.30
2019-04-07T10:30:36.007Z,2.10
2019-04-07T10:33:24.378Z,1.40
2019-04-07T10:36:15.921Z,1.07
2019-04-07T10:39:03.130Z,1.53
2019-04-07T10:41:55.263Z,1.33
2019-04-07T10:44:42.343Z,1.60
2019-04-07T10:47:30.412Z,1.27
2019-04-07T10:50:18.555Z,1.40
2019-04-07T10:52:56.180Z,1.40
2019-04-07T10:55:49.700Z,1.50
2019-04-07T10:58:27.931Z,1.57
2019-04-07T11:01:06.381Z,1.77
2019-04-07T11:04:03.941Z,1.57
2019-04-07T11:06:59.392Z,1.60
2019-04-07T11:09:45.188Z,1.60
2019-04-07T11:12:41.241Z,1.67
2019-04-07T11:15:28.076Z,1.67
2019-04-07T11:18:07.635Z,2.17
2019-04-07T11:20:57.234Z,3.13
2019-04-07T11:23:36.491Z,2.33
2019-04-07T11:26:24.124Z,2.30
2019-04-07T11:29:12.141Z,2.17
2019-04-07T11:32:00.379Z,2.60
2019-04-07T11:34:51.384Z,2.50
2019-04-07T11:37:38.634Z,2.43
2019-04-07T11:40:25.219Z,2.83
2019-04-07T11:43:20.740Z,2.27
2019-04-07T11:46:07.120Z,2.30
2019-04-07T11:48:45.097Z,2.30
2019-04-07T11:51:35.857Z,1.93
2019-04-07T11:54:16.482Z,2.20
2019-04-07T11:57:06.985Z,1.67
2019-04-07T11:59:54.190Z,1.80
2019-04-07T12:02:33.074Z,1.93
2019-04-07T12:05:15.901Z,1.97
2019-04-07T12:08:03.211Z,2.20
2019-04-07T12:11:01.719Z,2.57
2019-04-07T12:13:44.898Z,2.03
2019-04-07T12:16:35.298Z,1.87
2019-04-07T12:19:35.263Z,1.83
2019-04-07T12:22:19.429Z,2.00
2019-04-07T12:25:07.162Z,2.13
2019-04-07T12:28:14.616Z,1.70
2019-04-07T12:30:45.168Z,2.23
2019-04-07T12:33:32.937Z,2.17
2019-04-07T12:36:11.823Z,2.30
2019-04-07T12:38:58.569Z,1.90
2019-04-07T12:41:34.550Z,1.70
2019-04-07T12:44:25.437Z,2.13
2019-04-07T12:47:22.495Z,2.27
2019-04-07T12:50:10.581Z,1.93
2019-04-07T12:53:02.195Z,2.13
2019-04-07T12:55:49.947Z,2.10
2019-04-07T12:58:31.241Z,2.30
2019-04-07T13:01:28.184Z,1.90
2019-04-07T13:04:19.030Z,3.27
2019-04-07T13:07:04.386Z,2.40
2019-04-07T13:09:54.882Z,1.97
2019-04-07T13:12:45.479Z,1.97
2019-04-07T13:15:31.452Z,2.20
2019-04-07T13:18:11.816Z,2.17
2019-04-07T13:20:56.540Z,1.67
2019-04-07T13:23:39.847Z,1.80
2019-04-07T13:26:32.371Z,1.47
2019-04-07T13:29:23.690Z,1.90
2019-04-07T13:32:17.523Z,1.33
2019-04-07T13:35:05.859Z,1.50
2019-04-07T13:38:02.797Z,1.60
2019-04-07T13:41:03.008Z,1.50
2019-04-07T13:43:44.948Z,1.80
2019-04-07T13:46:44.997Z,1.70
2019-04-07T13:49:31.808Z,1.50
2019-04-07T13:52:31.254Z,1.57
2019-04-07T13:55:10.425Z,1.57
2019-04-07T13:57:55.638Z,1.50
2019-04-07T14:00:35.087Z,1.57
2019-04-07T14:03:23.347Z,1.80
2019-04-07T14:06:00.018Z,1.40
2019-04-07T14:08:49.499Z,1.30
2019-04-07T14:12:04.241Z,1.60
2019-04-07T14:14:48.370Z,1.30
2019-04-07T14:17:45.017Z,1.20
2019-04-07T14:20:38.733Z,1.20
2019-04-07T14:23:25.254Z,1.50
2019-04-07T14:26:25.769Z,1.43
2019-04-07T14:29:12.030Z,1.20
2019-04-07T14:31:53.527Z,1.10
2019-04-07T14:34:44.357Z,1.37
2019-04-07T14:37:31.842Z,1.27
2019-04-07T14:40:26.255Z,1.03
2019-04-07T14:43:09.790Z,1.30
2019-04-07T14:45:57.966Z,1.20
2019-04-07T14:48:45.759Z,1.63
2019-04-07T14:51:31.852Z,2.00
2019-04-07T14:54:29.243Z,1.30
2019-04-07T14:57:09.447Z,1.03
2019-04-07T14:59:47.411Z,1.53
2019-04-07T15:02:15.796Z,2.20
2019-04-07T15:04:54.467Z,1.27
2019-04-07T15:07:35.105Z,1.20
2019-04-07T15:10:25.281Z,1.70
2019-04-07T15:13:05.700Z,1.20
2019-04-07T15:15:36.859Z,1.30
2019-04-07T15:18:05.116Z,1.40
2019-04-07T15:20:34.344Z,0.80
2019-04-07T15:23:02.908Z,1.37
2019-04-07T15:25:31.347Z,0.97
2019-04-07T15:28:00.374Z,1.37
2019-04-07T15:30:29.986Z,1.40
2019-04-07T15:33:01.237Z,1.10
2019-04-07T15:35:29.623Z,1.43
2019-04-07T15:37:57.867Z,1.40
2019-04-07T15:40:26.004Z,1.40
2019-04-07T15:42:54.131Z,1.43
2019-04-07T15:45:23.394Z,1.33
2019-04-07T15:47:53.872Z,1.57
2019-04-07T15:50:22.577Z,1.50
2019-04-07T15:52:50.873Z,1.37
2019-04-07T15:55:19.689Z,1.60
2019-04-07T15:57:48.060Z,1.17
2019-04-07T16:00:16.766Z,1.43
2019-04-07T16:02:46.024Z,2.03
2019-04-07T16:05:14.813Z,1.30
2019-04-07T16:07:43.818Z,1.30
2019-04-07T16:10:15.085Z,1.13
2019-04-07T16:12:49.631Z,1.00
2019-04-07T16:15:16.518Z,1.30
2019-04-07T16:17:47.376Z,1.20
2019-04-07T16:20:23.100Z,1.37
2019-04-07T16:22:49.010Z,1.17
2019-04-07T16:25:16.946Z,1.13
2019-04-07T16:27:45.722Z,1.83
2019-04-07T16:30:17.367Z,1.30
2019-04-07T16:32:44.954Z,2.80
2019-04-07T16:35:16.374Z,1.30
2019-04-07T16:37:44.522Z,1.30
2019-04-07T16:40:14.385Z,1.30
2019-04-07T16:42:48.891Z,1.70
2019-04-07T16:45:16.406Z,5.80
2019-04-07T16:47:45.454Z,7.87
2019-04-07T16:50:18.059Z,4.07
2019-04-07T16:52:47.143Z,2.20
2019-04-07T16:55:41.755Z,2.40
2019-04-07T16:58:11.619Z,1.73
2019-04-07T17:00:40.259Z,2.03
2019-04-07T17:03:09.725Z,3.80
2019-04-07T17:05:39.656Z,2.43
2019-04-07T17:08:08.665Z,1.70
2019-04-07T17:10:37.230Z,1.90
2019-04-07T17:13:17.059Z,2.53
2019-04-07T17:15:39.455Z,1.27
2019-04-07T17:18:09.919Z,1.67
2019-04-07T17:20:42.855Z,1.33
2019-04-07T17:23:18.563Z,1.33
2019-04-07T17:25:45.145Z,1.60
2019-04-07T17:28:14.155Z,1.77
2019-04-07T17:30:43.293Z,1.83
2019-04-07T17:33:12.347Z,1.60
2019-04-07T17:35:43.253Z,1.77
2019-04-07T17:38:12.248Z,1.33
2019-04-07T17:40:47.221Z,1.37
2019-04-07T17:43:49.419Z,1.37
2019-04-07T17:46:40.704Z,1.37
2019-04-07T17:49:30.900Z,1.33
2019-04-07T17:52:16.796Z,1.47
2019-04-07T17:55:21.894Z,1.60
2019-04-07T17:58:11.569Z,1.40
2019-04-07T18:01:06.231Z,1.33
2019-04-07T18:03:56.628Z,1.50
2019-04-07T18:06:40.820Z,1.33
2019-04-07T18:09:23.406Z,1.33
2019-04-07T18:12:12.841Z,1.50
2019-04-07T18:15:03.624Z,1.53
2019-04-07T18:17:51.700Z,1.63
2019-04-07T18:20:48.623Z,1.50
2019-04-07T18:23:38.702Z,1.60
2019-04-07T18:26:45.245Z,1.30
2019-04-07T18:29:52.833Z,1.50
2019-04-07T18:32:46.397Z,1.50
2019-04-07T18:35:34.798Z,1.60
2019-04-07T18:38:21.788Z,1.43
2019-04-07T18:41:10.726Z,2.03
2019-04-07T18:44:04.630Z,1.23
2019-04-07T18:46:53.299Z,1.30
2019-04-07T18:49:52.412Z,1.63
2019-04-07T18:52:54.321Z,1.70
2019-04-07T18:56:01.477Z,1.50
2019-04-07T18:58:47.084Z,1.43
2019-04-07T19:01:41.345Z,1.83
2019-04-07T19:04:17.357Z,1.50
2019-04-07T19:06:55.846Z,1.53
2019-04-07T19:09:49.578Z,1.60
2019-04-07T19:12:47.703Z,1.50
2019-04-07T19:15:40.033Z,1.47
2019-04-07T19:18:28.317Z,1.40
2019-04-07T19:21:14.851Z,1.50
2019-04-07T19:24:02.511Z,1.50
2019-04-07T19:26:52.248Z,1.80
2019-04-07T19:29:26.704Z,1.40
2019-04-07T19:32:27.157Z,1.70
2019-04-07T19:35:15.258Z,1.73
2019-04-07T19:38:03.081Z,1.40
2019-04-07T19:40:49.191Z,1.40
2019-04-07T19:43:44.444Z,1.63
2019-04-07T19:46:31.549Z,1.40
2019-04-07T19:49:25.830Z,1.30
2019-04-07T19:52:12.680Z,1.47
2019-04-07T19:54:53.628Z,1.33
2019-04-07T19:57:46.904Z,1.60
2019-04-07T20:00:41.571Z,1.40
2019-04-07T20:03:37.770Z,1.50
2019-04-07T20:06:13.228Z,2.00
2019-04-07T20:09:12.554Z,2.03
2019-04-07T20:11:55.050Z,1.50
2019-04-07T20:14:52.719Z,1.53
2019-04-07T20:17:34.937Z,1.10
2019-04-07T20:20:12.583Z,1.30
2019-04-07T20:23:16.009Z,1.27
2019-04-07T20:26:01.687Z,1.40
2019-04-07T20:28:41.208Z,1.60
2019-04-07T20:31:19.439Z,1.40
2019-04-07T20:34:06.219Z,1.43
2019-04-07T20:36:57.704Z,1.53
2019-04-07T20:39:51.677Z,1.33
2019-04-07T20:42:36.755Z,1.27
2019-04-07T20:45:24.090Z,1.20
2019-04-07T20:48:15.784Z,1.30
2019-04-07T20:51:09.241Z,1.03
2019-04-07T20:54:03.419Z,1.60
2019-04-07T20:56:48.422Z,1.17
2019-04-07T20:59:46.963Z,1.07
2019-04-07T21:02:23.638Z,1.30
2019-04-07T21:05:02.940Z,1.03
2019-04-07T21:07:54.826Z,1.10
2019-04-07T21:10:45.652Z,0.87
2019-04-07T21:13:39.533Z,1.10
2019-04-07T21:16:33.089Z,1.07
2019-04-07T21:19:23.723Z,1.00
2019-04-07T21:22:14.127Z,0.93
2019-04-07T21:24:58.678Z,1.00
2019-04-07T21:27:38.776Z,0.90
2019-04-07T21:30:27.011Z,1.10
2019-04-07T21:33:09.662Z,0.93
2019-04-07T21:35:44.779Z,1.00
2019-04-07T21:38:41.356Z,1.70
2019-04-07T21:41:29.066Z,1.17
2019-04-07T21:44:32.324Z,0.90
2019-04-07T21:47:38.580Z,1.20
2019-04-07T21:50:38.420Z,0.97
2019-04-07T21:53:12.605Z,0.93
2019-04-07T21:55:55.722Z,1.07
2019-04-07T21:58:42.463Z,0.97
2019-04-07T22:01:16.665Z,1.30
2019-04-07T22:03:50.408Z,1.43
2019-04-07T22:06:40.618Z,1.10
2019-04-07T22:09:15.907Z,1.40
2019-04-07T22:11:45.067Z,1.40
2019-04-07T22:14:14.637Z,1.30
2019-04-07T22:16:42.878Z,1.27
2019-04-07T22:19:14.740Z,1.30
2019-04-07T22:21:41.234Z,1.40
2019-04-07T22:24:09.563Z,1.20
2019-04-07T22:26:37.648Z,1.30
2019-04-07T22:29:05.709Z,1.40
2019-04-07T22:31:45.572Z,1.40
2019-04-07T22:34:14.842Z,1.17
2019-04-07T22:36:45.458Z,1.20
2019-04-07T22:39:14.098Z,1.27
2019-04-07T22:41:44.124Z,1.00
2019-04-07T22:44:12.252Z,1.43
2019-04-07T22:46:40.295Z,1.17
2019-04-07T22:49:09.300Z,0.90
2019-04-07T22:51:38.158Z,1.10
2019-04-07T22:54:06.258Z,1.00
2019-04-07T22:56:36.671Z,0.87
2019-04-07T22:59:04.529Z,1.20
2019-04-07T23:01:33.359Z,1.00
2019-04-07T23:04:01.584Z,1.00
2019-04-07T23:06:29.623Z,1.00
2019-04-07T23:08:57.664Z,0.80
2019-04-07T23:11:26.162Z,0.80
2019-04-07T23:13:54.237Z,1.20
2019-04-07T23:16:22.273Z,0.97
2019-04-07T23:18:50.627Z,1.10
2019-04-07T23:21:19.208Z,1.10
2019-04-07T23:23:48.249Z,0.97
2019-04-07T23:26:16.374Z,1.23
2019-04-07T23:28:44.451Z,1.57
2019-04-07T23:31:13.664Z,0.80
2019-04-07T23:33:42.202Z,1.20
2019-04-07T23:36:10.226Z,1.07
2019-04-07T23:38:39.003Z,0.90
2019-04-07T23:41:07.159Z,1.10
2019-04-07T23:43:35.558Z,1.17
2019-04-07T23:46:05.000Z,1.20
2019-04-07T23:48:33.172Z,1.47
2019-04-07T23:51:01.684Z,1.07
2019-04-07T23:54:12.528Z,1.33
2019-04-07T23:56:43.643Z,1.10
2019-04-07T23:59:12.186Z,1.20
